Time;durP1;ratioP1;P1;durP2;ratioP2;P2;SDS_P1;SDS_P2;PMS_P1;PMS_P2;Temp;Humidity;BMP_temperature;BMP_pressure;BME280_temperature;BME280_humidity;BME280_pressure;Samples;Min_cycle;Max_cycle;Signal;HPM_P1;HPM_P2
2023/07/08 00:01:08;;;;;;;0.80;0.80;;;19.20;99.90;;;;;;4377889;32;20546;-73
2023/07/08 00:03:33;;;;;;;0.90;0.85;;;19.10;99.90;;;;;;4379512;32;20142;-72
2023/07/08 00:05:59;;;;;;;0.30;0.30;;;19.00;99.90;;;;;;4380414;32;20521;-74
2023/07/08 00:08:24;;;;;;;0.70;0.70;;;18.90;99.90;;;;;;4378120;32;20098;-74
2023/07/08 00:10:51;;;;;;;5.20;1.62;;;18.90;99.90;;;;;;4379297;32;20095;-71
2023/07/08 00:13:18;;;;;;;1.45;0.95;;;18.90;99.90;;;;;;4378040;32;20161;-72
2023/07/08 00:15:44;;;;;;;0.88;0.60;;;18.80;99.90;;;;;;4376320;32;20083;-71
2023/07/08 00:18:13;;;;;;;1.65;1.00;;;18.90;99.90;;;;;;4378062;32;20078;-74
2023/07/08 00:20:43;;;;;;;0.30;0.30;;;18.80;99.90;;;;;;4381296;32;20061;-73
2023/07/08 00:23:09;;;;;;;0.67;0.67;;;18.80;99.90;;;;;;4379262;32;20435;-73
2023/07/08 00:25:35;;;;;;;0.98;0.75;;;18.80;99.90;;;;;;4376697;32;20103;-74
2023/07/08 00:28:00;;;;;;;1.20;0.80;;;18.90;99.90;;;;;;4379807;32;20063;-74
2023/07/08 00:30:29;;;;;;;1.92;0.80;;;19.00;99.90;;;;;;4380817;32;20932;-73
2023/07/08 00:32:56;;;;;;;1.65;0.88;;;18.90;99.90;;;;;;4379019;32;20114;-72
2023/07/08 00:35:25;;;;;;;0.70;0.70;;;18.80;99.90;;;;;;4376867;32;20091;-72
2023/07/08 00:37:52;;;;;;;0.82;0.75;;;18.70;99.90;;;;;;4377243;32;20097;-72
2023/07/08 00:40:20;;;;;;;0.50;0.50;;;18.50;99.90;;;;;;4378296;32;20089;-71
2023/07/08 00:42:46;;;;;;;0.75;0.60;;;18.50;99.90;;;;;;4378853;32;20066;-71
2023/07/08 00:45:19;;;;;;;0.40;0.40;;;18.50;99.90;;;;;;4377355;32;20083;-73
2023/07/08 00:47:45;;;;;;;2.58;1.17;;;18.60;99.90;;;;;;4377906;32;20082;-73
2023/07/08 00:50:11;;;;;;;1.00;0.75;;;18.60;99.90;;;;;;4379124;32;20071;-75
2023/07/08 00:52:37;;;;;;;1.98;0.73;;;18.60;99.90;;;;;;4379479;32;20089;-73
2023/07/08 00:55:08;;;;;;;4.20;0.98;;;18.60;99.90;;;;;;4377153;32;20103;-74
2023/07/08 00:57:36;;;;;;;1.05;0.70;;;18.50;99.90;;;;;;4380214;32;20075;-73
2023/07/08 01:00:08;;;;;;;3.05;1.12;;;18.60;99.90;;;;;;4378016;32;20102;-73
2023/07/08 01:02:41;;;;;;;0.90;0.90;;;18.60;99.90;;;;;;4379538;32;20089;-73
2023/07/08 01:05:11;;;;;;;0.95;0.75;;;18.60;99.90;;;;;;4377561;32;20566;-75
2023/07/08 01:07:40;;;;;;;0.40;0.40;;;18.60;99.90;;;;;;4376829;32;20098;-74
2023/07/08 01:10:12;;;;;;;2.45;0.52;;;18.70;99.90;;;;;;4379073;32;20174;-74
2023/07/08 01:12:45;;;;;;;0.65;0.65;;;18.60;99.90;;;;;;4379913;32;20082;-73
2023/07/08 01:15:12;;;;;;;1.08;0.82;;;18.50;99.90;;;;;;4381052;32;20126;-74
2023/07/08 01:17:39;;;;;;;2.10;0.70;;;18.70;99.90;;;;;;4381610;32;20509;-73
2023/07/08 01:20:06;;;;;;;1.05;0.90;;;18.50;99.90;;;;;;4380400;32;20102;-73
2023/07/08 01:22:36;;;;;;;1.20;0.50;;;18.60;99.90;;;;;;4379556;32;20344;-75
2023/07/08 01:25:03;;;;;;;0.70;0.70;;;18.60;99.90;;;;;;4377868;32;20070;-74
2023/07/08 01:27:32;;;;;;;0.68;0.57;;;18.50;99.90;;;;;;4377970;32;20058;-75
2023/07/08 01:29:59;;;;;;;0.65;0.60;;;18.30;99.90;;;;;;4378228;32;20534;-74
2023/07/08 01:32:25;;;;;;;0.50;0.50;;;18.30;99.90;;;;;;4379162;32;20094;-73
2023/07/08 01:35:00;;;;;;;2.05;1.42;;;18.30;99.90;;;;;;4378733;32;20479;-73
2023/07/08 01:37:33;;;;;;;0.70;0.70;;;18.30;99.90;;;;;;4380735;32;20089;-75
2023/07/08 01:40:14;;;;;;;1.02;0.75;;;18.20;99.90;;;;;;4378601;32;20537;-74
2023/07/08 01:42:39;;;;;;;0.80;0.80;;;18.10;99.90;;;;;;4380026;32;20118;-73
2023/07/08 01:45:12;;;;;;;1.58;0.73;;;18.10;99.90;;;;;;4380634;32;20094;-73
2023/07/08 01:47:39;;;;;;;0.55;0.55;;;18.20;99.90;;;;;;4379336;32;20159;-74
2023/07/08 01:50:05;;;;;;;4.05;0.98;;;18.20;99.90;;;;;;4379039;32;20551;-74
2023/07/08 01:52:30;;;;;;;0.52;0.52;;;18.20;99.90;;;;;;4378115;32;20075;-74
2023/07/08 01:54:56;;;;;;;0.85;0.82;;;18.10;99.90;;;;;;4378263;32;20157;-74
2023/07/08 01:57:21;;;;;;;0.65;0.52;;;18.10;99.90;;;;;;4378703;32;20067;-73
2023/07/08 01:59:47;;;;;;;0.60;0.60;;;17.90;99.90;;;;;;4380554;32;20482;-73
2023/07/08 02:02:13;;;;;;;0.50;0.50;;;17.90;99.90;;;;;;4377249;32;20070;-73
2023/07/08 02:04:38;;;;;;;1.52;0.65;;;17.80;99.90;;;;;;4380928;32;20164;-73
2023/07/08 02:07:04;;;;;;;1.50;0.85;;;17.80;99.90;;;;;;4380865;32;20094;-72
2023/07/08 02:09:30;;;;;;;2.95;1.20;;;18.00;99.90;;;;;;4381661;32;20157;-73
2023/07/08 02:11:56;;;;;;;0.50;0.50;;;18.00;99.90;;;;;;4378274;32;20074;-74
2023/07/08 02:14:22;;;;;;;0.50;0.50;;;18.00;99.90;;;;;;4379515;32;20078;-73
2023/07/08 02:16:47;;;;;;;1.35;0.75;;;18.00;99.90;;;;;;4379280;32;20069;-73
2023/07/08 02:19:13;;;;;;;0.60;0.60;;;18.00;99.90;;;;;;4380520;32;20070;-74
2023/07/08 02:21:40;;;;;;;0.50;0.50;;;17.90;99.90;;;;;;4382553;32;20097;-74
2023/07/08 02:24:06;;;;;;;0.98;0.90;;;18.00;99.90;;;;;;4379848;32;20078;-73
2023/07/08 02:26:32;;;;;;;8.05;0.70;;;18.00;99.90;;;;;;4379277;32;20132;-73
2023/07/08 02:28:58;;;;;;;0.93;0.70;;;17.80;99.90;;;;;;4380974;32;20117;-75
2023/07/08 02:31:25;;;;;;;9.05;1.05;;;17.70;99.90;;;;;;4379221;32;20091;-76
2023/07/08 02:33:51;;;;;;;0.62;0.60;;;17.70;99.90;;;;;;4383075;32;20099;-76
2023/07/08 02:36:17;;;;;;;0.73;0.68;;;17.70;99.90;;;;;;4380716;32;20070;-75
2023/07/08 02:38:42;;;;;;;0.50;0.50;;;17.80;99.90;;;;;;4378913;32;20431;-74
2023/07/08 02:41:08;;;;;;;1.87;1.17;;;17.80;99.90;;;;;;4382283;32;20082;-74
2023/07/08 02:43:33;;;;;;;0.35;0.35;;;17.80;99.90;;;;;;4385585;32;20141;-74
2023/07/08 02:45:59;;;;;;;1.48;0.73;;;17.80;99.90;;;;;;4380052;32;20094;-74
2023/07/08 02:48:24;;;;;;;0.55;0.52;;;17.80;99.90;;;;;;4381912;32;20106;-74
2023/07/08 02:50:50;;;;;;;0.55;0.55;;;17.80;99.90;;;;;;4382222;32;20143;-73
2023/07/08 02:53:15;;;;;;;1.17;0.60;;;17.70;99.90;;;;;;4379804;32;20150;-75
2023/07/08 02:55:42;;;;;;;0.70;0.70;;;17.70;99.90;;;;;;4380549;32;20082;-73
2023/07/08 02:58:09;;;;;;;0.47;0.47;;;17.60;99.90;;;;;;4380097;32;20073;-73
2023/07/08 03:00:37;;;;;;;0.70;0.57;;;17.50;99.90;;;;;;4382267;32;20090;-75
2023/07/08 03:03:03;;;;;;;0.50;0.50;;;17.40;99.90;;;;;;4380876;32;20074;-74
2023/07/08 03:05:30;;;;;;;0.70;0.70;;;17.40;99.90;;;;;;4378748;32;20066;-74
2023/07/08 03:07:56;;;;;;;0.57;0.50;;;17.50;99.90;;;;;;4380691;32;20066;-72
2023/07/08 03:10:21;;;;;;;3.70;1.50;;;17.40;99.90;;;;;;4381293;32;20086;-72
2023/07/08 03:12:47;;;;;;;0.70;0.70;;;17.50;99.90;;;;;;4380329;32;20534;-74
2023/07/08 03:15:12;;;;;;;0.88;0.88;;;17.50;99.90;;;;;;4381589;32;20106;-74
2023/07/08 03:17:38;;;;;;;0.50;0.50;;;17.50;99.90;;;;;;4380462;32;20521;-73
2023/07/08 03:20:05;;;;;;;0.68;0.68;;;17.50;99.90;;;;;;4380407;32;20129;-72
2023/07/08 03:22:31;;;;;;;0.32;0.32;;;17.50;99.90;;;;;;4381478;32;20098;-74
2023/07/08 03:24:56;;;;;;;1.25;0.95;;;17.50;99.90;;;;;;4380514;32;20133;-73
2023/07/08 03:27:22;;;;;;;0.60;0.60;;;17.50;99.90;;;;;;4379273;32;20132;-75
2023/07/08 03:29:47;;;;;;;1.40;0.75;;;17.50;99.90;;;;;;4380673;32;20779;-74
2023/07/08 03:32:13;;;;;;;1.55;1.00;;;17.40;99.90;;;;;;4380088;32;20108;-74
2023/07/08 03:34:38;;;;;;;0.50;0.50;;;17.40;99.90;;;;;;4378920;32;20506;-72
2023/07/08 03:37:05;;;;;;;0.50;0.50;;;17.30;99.90;;;;;;4379765;32;20538;-75
2023/07/08 03:39:31;;;;;;;0.40;0.40;;;17.40;99.90;;;;;;4380460;32;20117;-72
2023/07/08 03:41:58;;;;;;;0.55;0.55;;;17.40;99.90;;;;;;4379454;32;20079;-72
2023/07/08 03:44:24;;;;;;;0.50;0.50;;;17.40;99.90;;;;;;4382372;32;20066;-72
2023/07/08 03:46:49;;;;;;;0.50;0.50;;;17.40;99.90;;;;;;4381608;32;20082;-72
2023/07/08 03:49:16;;;;;;;0.70;0.70;;;17.40;99.90;;;;;;4381084;32;20079;-71
2023/07/08 03:51:43;;;;;;;0.50;0.50;;;17.50;99.90;;;;;;4382000;32;20094;-72
2023/07/08 03:54:12;;;;;;;3.62;1.15;;;17.60;99.90;;;;;;4380327;32;20128;-72
2023/07/08 03:56:38;;;;;;;1.52;0.90;;;17.60;99.90;;;;;;4380223;32;20546;-74
2023/07/08 03:59:03;;;;;;;0.40;0.40;;;17.60;99.90;;;;;;4379746;32;20079;-72
2023/07/08 04:01:30;;;;;;;0.47;0.47;;;17.40;99.90;;;;;;4382667;32;20078;-73
2023/07/08 04:03:57;;;;;;;1.45;0.62;;;17.50;99.90;;;;;;4380342;32;20747;-72
2023/07/08 04:06:24;;;;;;;1.60;1.02;;;17.40;99.90;;;;;;4379919;32;20555;-72
2023/07/08 04:08:50;;;;;;;1.75;0.88;;;17.50;99.90;;;;;;4378245;32;20098;-72
2023/07/08 04:11:18;;;;;;;0.75;0.65;;;17.50;99.90;;;;;;4381598;32;20087;-74
2023/07/08 04:13:44;;;;;;;1.25;1.00;;;17.60;99.90;;;;;;4376420;32;20222;-73
2023/07/08 04:16:18;;;;;;;1.62;0.98;;;17.70;99.90;;;;;;4379974;32;20227;-74
2023/07/08 04:18:44;;;;;;;0.50;0.50;;;17.80;99.90;;;;;;4380341;32;21092;-73
2023/07/08 04:21:09;;;;;;;1.58;1.02;;;17.90;99.90;;;;;;4379493;32;20070;-72
2023/07/08 04:23:34;;;;;;;0.77;0.57;;;18.00;99.90;;;;;;4379476;32;20073;-73
2023/07/08 04:26:01;;;;;;;2.20;0.50;;;18.00;99.90;;;;;;4378928;32;20185;-72
2023/07/08 04:28:26;;;;;;;3.45;1.12;;;18.00;99.90;;;;;;4381457;32;20091;-72
2023/07/08 04:30:52;;;;;;;0.60;0.60;;;18.00;99.90;;;;;;4380599;32;20534;-71
2023/07/08 04:33:18;;;;;;;0.60;0.60;;;18.10;99.90;;;;;;4381029;32;20205;-71
2023/07/08 04:35:44;;;;;;;0.40;0.40;;;18.10;99.90;;;;;;4380789;32;20577;-72
2023/07/08 04:38:21;;;;;;;0.43;0.43;;;18.20;99.90;;;;;;4380939;32;20155;-73
2023/07/08 04:40:48;;;;;;;0.47;0.47;;;18.30;99.90;;;;;;4381608;32;20059;-73
2023/07/08 04:43:14;;;;;;;0.55;0.55;;;18.30;99.90;;;;;;4382060;32;20078;-75
2023/07/08 04:45:42;;;;;;;0.57;0.57;;;18.30;99.90;;;;;;4379587;32;20553;-73
2023/07/08 04:48:12;;;;;;;0.30;0.30;;;18.30;99.90;;;;;;4382022;32;20078;-73
2023/07/08 04:50:41;;;;;;;2.37;0.62;;;18.40;99.90;;;;;;4380031;32;20086;-73
2023/07/08 04:53:06;;;;;;;0.60;0.60;;;18.50;99.90;;;;;;4380876;32;20082;-74
2023/07/08 04:55:32;;;;;;;1.27;0.75;;;18.60;99.90;;;;;;4379325;32;20525;-75
2023/07/08 04:57:57;;;;;;;1.42;0.68;;;18.70;99.90;;;;;;4376903;32;20098;-73
2023/07/08 05:00:23;;;;;;;0.40;0.40;;;18.80;99.90;;;;;;4379625;32;20122;-73
2023/07/08 05:02:49;;;;;;;0.62;0.62;;;18.90;99.90;;;;;;4379597;32;20152;-73
2023/07/08 05:05:14;;;;;;;0.88;0.80;;;18.90;99.90;;;;;;4380792;32;20099;-72
2023/07/08 05:07:40;;;;;;;0.57;0.55;;;19.00;99.90;;;;;;4379354;32;20099;-73
2023/07/08 05:10:06;;;;;;;0.28;0.28;;;19.00;99.90;;;;;;4380943;32;20058;-74
2023/07/08 05:12:31;;;;;;;0.50;0.50;;;19.10;99.90;;;;;;4377481;32;20070;-73
2023/07/08 05:14:57;;;;;;;0.50;0.50;;;19.20;99.90;;;;;;4378820;32;20074;-74
2023/07/08 05:17:24;;;;;;;0.47;0.47;;;19.20;99.90;;;;;;4377735;32;20137;-74
2023/07/08 05:19:51;;;;;;;0.43;0.43;;;19.30;99.90;;;;;;4379143;32;20082;-74
2023/07/08 05:22:18;;;;;;;1.00;0.40;;;19.40;99.90;;;;;;4378771;32;20106;-73
2023/07/08 05:24:43;;;;;;;0.45;0.45;;;19.50;99.90;;;;;;4378998;32;20335;-74
2023/07/08 05:27:09;;;;;;;0.52;0.43;;;19.60;99.90;;;;;;4376549;32;20542;-73
2023/07/08 05:29:34;;;;;;;0.50;0.50;;;19.70;99.90;;;;;;4376077;32;20773;-73
2023/07/08 05:32:00;;;;;;;0.68;0.40;;;19.80;99.90;;;;;;4376691;32;20089;-73
2023/07/08 05:34:25;;;;;;;5.22;1.45;;;19.90;99.90;;;;;;4378147;32;20085;-73
2023/07/08 05:36:51;;;;;;;1.90;1.17;;;20.00;99.90;;;;;;4378310;32;20090;-73
2023/07/08 05:39:16;;;;;;;2.30;1.00;;;20.10;99.90;;;;;;4374165;32;21360;-74
2023/07/08 05:41:42;;;;;;;0.50;0.50;;;20.20;99.90;;;;;;4378247;32;20082;-74
2023/07/08 05:44:07;;;;;;;1.35;0.98;;;20.20;99.90;;;;;;4379728;32;21721;-75
2023/07/08 05:46:33;;;;;;;0.30;0.30;;;20.30;99.90;;;;;;4376938;32;20819;-75
2023/07/08 05:48:58;;;;;;;0.43;0.40;;;20.40;99.90;;;;;;4378513;32;20098;-73
2023/07/08 05:51:24;;;;;;;0.40;0.40;;;20.50;99.90;;;;;;4381155;32;20090;-73
2023/07/08 05:53:49;;;;;;;0.88;0.70;;;20.60;99.90;;;;;;4381508;32;20101;-75
2023/07/08 05:56:15;;;;;;;0.50;0.50;;;20.60;99.90;;;;;;4379827;32;20152;-73
2023/07/08 05:58:40;;;;;;;0.50;0.50;;;20.70;99.90;;;;;;4380419;32;20522;-75
2023/07/08 06:01:06;;;;;;;1.65;1.15;;;20.80;99.90;;;;;;4383074;32;20562;-73
2023/07/08 06:03:31;;;;;;;0.98;0.50;;;20.90;99.90;;;;;;4381129;32;20152;-73
2023/07/08 06:05:57;;;;;;;0.40;0.40;;;21.00;99.90;;;;;;4381975;32;20102;-75
2023/07/08 06:08:23;;;;;;;1.37;1.02;;;21.20;99.90;;;;;;4380952;32;20062;-74
2023/07/08 06:10:50;;;;;;;0.50;0.50;;;21.30;99.90;;;;;;4379734;32;20105;-75
2023/07/08 06:13:15;;;;;;;2.95;0.52;;;21.40;99.90;;;;;;4385539;32;20102;-78
2023/07/08 06:15:41;;;;;;;0.50;0.50;;;21.50;99.90;;;;;;4381012;32;20082;-79
2023/07/08 06:18:07;;;;;;;0.40;0.40;;;21.60;99.90;;;;;;4380928;32;20182;-77
2023/07/08 06:20:32;;;;;;;0.60;0.60;;;21.70;99.90;;;;;;4383434;32;20086;-77
2023/07/08 06:22:58;;;;;;;0.30;0.30;;;21.80;99.90;;;;;;4370443;32;20447;-76
2023/07/08 06:25:23;;;;;;;0.70;0.68;;;21.90;99.90;;;;;;4381220;32;20122;-79
2023/07/08 06:27:49;;;;;;;1.27;0.98;;;22.00;99.90;;;;;;4382925;32;20096;-77
2023/07/08 06:30:14;;;;;;;0.37;0.37;;;22.10;99.60;;;;;;4383271;32;20087;-76
2023/07/08 06:32:40;;;;;;;0.40;0.40;;;22.20;99.70;;;;;;4383080;32;20660;-77
2023/07/08 06:35:06;;;;;;;2.40;1.05;;;22.30;99.90;;;;;;4381099;32;20090;-77
2023/07/08 06:37:31;;;;;;;0.20;0.20;;;22.40;99.90;;;;;;4380004;32;20074;-77
2023/07/08 06:39:57;;;;;;;0.30;0.30;;;22.50;99.40;;;;;;4378867;32;20066;-79
2023/07/08 06:42:22;;;;;;;0.40;0.40;;;22.50;99.90;;;;;;4379888;32;20078;-78
2023/07/08 06:44:50;;;;;;;0.40;0.40;;;22.60;99.40;;;;;;4381298;32;20106;-76
2023/07/08 06:47:19;;;;;;;0.45;0.45;;;22.60;99.00;;;;;;4382860;32;20135;-77
2023/07/08 06:49:46;;;;;;;1.85;0.88;;;22.80;99.10;;;;;;4379348;32;20105;-78
2023/07/08 06:52:11;;;;;;;0.30;0.30;;;22.90;98.90;;;;;;4382222;32;20078;-75
2023/07/08 06:54:37;;;;;;;9.57;0.65;;;22.90;98.20;;;;;;4380098;32;20098;-76
2023/07/08 06:57:02;;;;;;;0.60;0.60;;;23.00;97.80;;;;;;4382149;32;20066;-77
2023/07/08 06:59:28;;;;;;;0.30;0.30;;;23.10;98.30;;;;;;4382816;32;20074;-78
2023/07/08 07:01:54;;;;;;;0.60;0.60;;;23.20;98.60;;;;;;4381092;32;20521;-79
2023/07/08 07:04:19;;;;;;;0.50;0.50;;;23.30;98.20;;;;;;4382242;32;20114;-78
2023/07/08 07:06:45;;;;;;;0.30;0.30;;;23.30;97.50;;;;;;4382942;32;20580;-79
2023/07/08 07:09:10;;;;;;;0.50;0.50;;;23.50;97.70;;;;;;4382218;32;20070;-76
2023/07/08 07:11:36;;;;;;;0.40;0.40;;;23.60;96.60;;;;;;4384022;32;20066;-76
2023/07/08 07:14:02;;;;;;;5.95;1.58;;;23.70;96.40;;;;;;4381245;32;20086;-76
2023/07/08 07:16:28;;;;;;;0.52;0.47;;;23.70;96.00;;;;;;4380011;32;20062;-76
2023/07/08 07:18:53;;;;;;;0.50;0.50;;;23.80;96.40;;;;;;4380917;32;20069;-78
2023/07/08 07:21:19;;;;;;;0.30;0.30;;;23.90;96.30;;;;;;4380558;32;20707;-77
2023/07/08 07:23:44;;;;;;;0.32;0.32;;;24.00;96.20;;;;;;4378489;32;20082;-76
2023/07/08 07:26:10;;;;;;;1.05;0.70;;;24.10;96.40;;;;;;4380992;32;20237;-77
2023/07/08 07:28:35;;;;;;;0.40;0.40;;;24.20;95.70;;;;;;4382211;32;20103;-78
2023/07/08 07:31:01;;;;;;;0.47;0.47;;;24.30;96.00;;;;;;4380573;32;20066;-77
2023/07/08 07:33:27;;;;;;;0.65;0.47;;;24.40;94.90;;;;;;4379676;32;20471;-77
2023/07/08 07:35:53;;;;;;;0.57;0.40;;;24.60;95.10;;;;;;4380775;32;20069;-77
2023/07/08 07:38:18;;;;;;;0.30;0.30;;;24.70;95.80;;;;;;4382007;32;20098;-78
2023/07/08 07:40:44;;;;;;;0.50;0.50;;;24.80;94.60;;;;;;4379988;32;20089;-78
2023/07/08 07:43:10;;;;;;;1.20;0.85;;;24.90;95.10;;;;;;4378260;32;20067;-75
2023/07/08 07:45:36;;;;;;;0.25;0.25;;;25.00;94.80;;;;;;4380177;32;20069;-75
2023/07/08 07:48:02;;;;;;;0.35;0.35;;;25.20;94.60;;;;;;4380383;32;20491;-77
2023/07/08 07:50:28;;;;;;;0.40;0.40;;;25.30;94.20;;;;;;4380128;32;20066;-77
2023/07/08 07:52:53;;;;;;;0.35;0.35;;;25.40;93.70;;;;;;4378810;32;20089;-78
2023/07/08 07:55:19;;;;;;;0.45;0.45;;;25.60;94.60;;;;;;4377650;32;20201;-78
2023/07/08 07:57:46;;;;;;;8.15;0.62;;;25.70;94.20;;;;;;4380577;32;20070;-78
2023/07/08 08:00:13;;;;;;;0.65;0.47;;;25.80;93.40;;;;;;4377744;32;20090;-77
2023/07/08 08:02:40;;;;;;;0.60;0.60;;;26.00;93.00;;;;;;4378569;32;20132;-78
2023/07/08 08:05:05;;;;;;;0.43;0.43;;;26.10;93.70;;;;;;4378655;32;20102;-78
2023/07/08 08:07:31;;;;;;;0.50;0.50;;;26.30;93.30;;;;;;4379970;32;20086;-79
2023/07/08 08:09:56;;;;;;;0.28;0.28;;;26.30;92.10;;;;;;4379737;32;20082;-79
2023/07/08 08:12:24;;;;;;;0.40;0.40;;;26.50;92.60;;;;;;4377880;32;20644;-78
2023/07/08 08:14:50;;;;;;;0.37;0.37;;;26.60;92.20;;;;;;4377871;32;20156;-79
2023/07/08 08:17:16;;;;;;;0.17;0.17;;;26.60;91.90;;;;;;4380708;32;20090;-78
2023/07/08 08:19:41;;;;;;;2.10;0.62;;;26.80;92.30;;;;;;4380015;32;20085;-78
2023/07/08 08:22:07;;;;;;;0.98;0.70;;;26.80;91.50;;;;;;4379239;32;20133;-77
2023/07/08 08:24:33;;;;;;;0.30;0.30;;;26.90;91.20;;;;;;4377611;32;20098;-77
2023/07/08 08:26:59;;;;;;;0.32;0.28;;;27.00;90.50;;;;;;4377361;32;20126;-77
2023/07/08 08:29:25;;;;;;;0.32;0.32;;;27.10;90.30;;;;;;4376686;32;20070;-77
2023/07/08 08:31:51;;;;;;;0.20;0.20;;;27.20;89.20;;;;;;4377776;32;20070;-78
2023/07/08 08:34:17;;;;;;;0.30;0.30;;;27.20;89.30;;;;;;4378809;32;20090;-78
2023/07/08 08:36:42;;;;;;;0.47;0.47;;;27.30;87.60;;;;;;4376315;32;20102;-77
2023/07/08 08:39:08;;;;;;;0.22;0.22;;;27.40;87.60;;;;;;4379909;32;20066;-77
2023/07/08 08:41:40;;;;;;;0.30;0.30;;;27.50;86.80;;;;;;4378969;32;20094;-76
2023/07/08 08:44:10;;;;;;;0.37;0.32;;;27.60;86.30;;;;;;4379202;32;20063;-77
2023/07/08 08:47:04;;;;;;;0.50;0.50;;;27.70;85.50;;;;;;4379922;32;20067;-77
2023/07/08 08:49:37;;;;;;;0.20;0.20;;;27.70;86.40;;;;;;4380728;32;20135;-78
2023/07/08 08:52:03;;;;;;;0.30;0.30;;;27.80;85.70;;;;;;4376808;32;20534;-78
2023/07/08 08:54:29;;;;;;;0.62;0.30;;;27.90;84.10;;;;;;4378532;32;20090;-77
2023/07/08 08:57:04;;;;;;;0.20;0.20;;;27.90;80.90;;;;;;4378218;32;20107;-77
2023/07/08 08:59:44;;;;;;;0.30;0.30;;;27.90;81.30;;;;;;4377953;32;20132;-77
2023/07/08 09:02:37;;;;;;;0.10;0.10;;;28.00;79.00;;;;;;4379595;32;20074;-77
2023/07/08 09:05:07;;;;;;;0.70;0.50;;;28.00;75.10;;;;;;4378495;32;20145;-77
2023/07/08 09:08:01;;;;;;;0.13;0.13;;;28.00;72.20;;;;;;4379370;32;20094;-76
2023/07/08 09:10:56;;;;;;;1.52;0.37;;;28.00;73.70;;;;;;4380070;32;20115;-78
2023/07/08 09:13:27;;;;;;;0.20;0.20;;;28.10;76.10;;;;;;4377114;32;20066;-76
2023/07/08 09:16:00;;;;;;;0.20;0.20;;;28.20;79.00;;;;;;4376941;32;20074;-77
2023/07/08 09:18:33;;;;;;;0.40;0.40;;;28.40;79.30;;;;;;4379734;32;20135;-78
2023/07/08 09:21:04;;;;;;;0.28;0.28;;;28.40;75.80;;;;;;4378371;32;21060;-77
2023/07/08 09:23:34;;;;;;;0.37;0.37;;;28.40;74.30;;;;;;4376660;32;20118;-78
2023/07/08 09:26:11;;;;;;;0.20;0.20;;;28.50;75.40;;;;;;4380173;32;20071;-78
2023/07/08 09:28:40;;;;;;;0.13;0.13;;;28.50;67.20;;;;;;4377921;32;20518;-79
2023/07/08 09:31:09;;;;;;;0.10;0.10;;;28.50;68.00;;;;;;4382419;32;20085;-76
2023/07/08 09:33:38;;;;;;;0.75;0.30;;;28.60;71.00;;;;;;4380144;32;20081;-78
2023/07/08 09:36:18;;;;;;;0.20;0.20;;;28.70;73.40;;;;;;4381829;32;20554;-77
2023/07/08 09:38:48;;;;;;;0.32;0.20;;;28.70;71.90;;;;;;4380937;32;20604;-77
2023/07/08 09:41:13;;;;;;;0.30;0.30;;;28.70;69.60;;;;;;4381480;32;20062;-77
2023/07/08 09:43:39;;;;;;;0.28;0.22;;;28.80;69.80;;;;;;4382941;32;20090;-79
2023/07/08 09:46:11;;;;;;;0.20;0.20;;;28.80;70.70;;;;;;4380573;32;20093;-77
2023/07/08 09:48:36;;;;;;;0.20;0.20;;;28.80;71.30;;;;;;4381701;32;20125;-76
2023/07/08 09:51:03;;;;;;;1.70;0.85;;;28.90;71.10;;;;;;4379591;32;20186;-78
2023/07/08 09:53:29;;;;;;;0.20;0.20;;;29.00;71.10;;;;;;4380259;32;20098;-77
2023/07/08 09:56:00;;;;;;;0.20;0.20;;;29.10;71.20;;;;;;4380364;32;20082;-77
2023/07/08 09:58:30;;;;;;;0.10;0.10;;;29.30;72.70;;;;;;4379496;32;20125;-78
2023/07/08 10:00:58;;;;;;;0.15;0.15;;;29.40;69.60;;;;;;4380609;32;20558;-77
2023/07/08 10:03:28;;;;;;;0.30;0.30;;;29.60;69.50;;;;;;4379829;32;20106;-77
2023/07/08 10:05:57;;;;;;;0.20;0.20;;;29.60;70.30;;;;;;4380376;32;20960;-76
2023/07/08 10:08:27;;;;;;;0.20;0.20;;;29.80;70.80;;;;;;4381658;32;20100;-77
2023/07/08 10:11:01;;;;;;;0.20;0.20;;;29.80;69.20;;;;;;4380625;32;20510;-77
2023/07/08 10:13:37;;;;;;;0.20;0.20;;;30.00;67.10;;;;;;4379221;32;20797;-78
2023/07/08 10:16:15;;;;;;;0.10;0.10;;;30.10;65.80;;;;;;4378171;32;20442;-78
2023/07/08 10:18:41;;;;;;;0.47;0.47;;;30.10;66.60;;;;;;4383380;32;20110;-77
2023/07/08 10:21:30;;;;;;;2.22;0.88;;;30.20;63.90;;;;;;4381647;32;20123;-78
2023/07/08 10:24:17;;;;;;;0.28;0.28;;;30.10;64.80;;;;;;4380471;32;20742;-78
2023/07/08 10:26:48;;;;;;;0.30;0.30;;;30.20;67.00;;;;;;4379021;32;20082;-77
2023/07/08 10:29:36;;;;;;;0.10;0.10;;;30.50;65.40;;;;;;4379510;32;20153;-77
2023/07/08 10:32:22;;;;;;;0.20;0.20;;;30.70;63.80;;;;;;4379332;32;20098;-77
2023/07/08 10:34:59;;;;;;;1.70;0.65;;;30.80;64.00;;;;;;4378243;32;20078;-77
2023/07/08 10:37:39;;;;;;;0.15;0.15;;;30.90;63.60;;;;;;4381051;32;21291;-76
2023/07/08 10:40:44;;;;;;;0.13;0.13;;;31.10;64.80;;;;;;4379303;32;20149;-77
2023/07/08 10:43:31;;;;;;;0.32;0.32;;;31.40;63.30;;;;;;4380928;32;20070;-77
2023/07/08 10:46:22;;;;;;;0.45;0.45;;;31.40;62.00;;;;;;4379830;32;20094;-76
2023/07/08 10:49:06;;;;;;;0.25;0.20;;;31.40;61.20;;;;;;4379504;32;20131;-77
2023/07/08 10:51:38;;;;;;;0.20;0.20;;;31.30;61.40;;;;;;4380448;32;20094;-77
2023/07/08 10:54:17;;;;;;;0.03;0.03;;;31.40;62.50;;;;;;4381543;32;20091;-75
2023/07/08 10:56:54;;;;;;;0.70;0.55;;;31.70;62.70;;;;;;4379364;32;20074;-76
2023/07/08 10:59:42;;;;;;;0.37;0.37;;;31.90;63.70;;;;;;4381834;32;20102;-78
2023/07/08 11:02:30;;;;;;;0.10;0.10;;;32.10;61.30;;;;;;4377802;32;20094;-77
2023/07/08 11:05:12;;;;;;;16.35;0.47;;;32.30;61.90;;;;;;4380582;32;20543;-78
2023/07/08 11:07:46;;;;;;;0.52;0.40;;;32.40;60.60;;;;;;4378771;32;20098;-79
2023/07/08 11:10:19;;;;;;;0.28;0.28;;;32.40;59.10;;;;;;4378951;32;20089;-77
2023/07/08 11:12:49;;;;;;;0.00;0.00;;;32.40;59.90;;;;;;4381272;32;20073;-78
2023/07/08 11:15:23;;;;;;;0.50;0.32;;;32.50;60.40;;;;;;4379217;32;20086;-78
2023/07/08 11:17:59;;;;;;;0.10;0.10;;;32.80;58.70;;;;;;4380679;32;20083;-77
2023/07/08 11:20:44;;;;;;;0.20;0.20;;;32.30;58.30;;;;;;4379498;32;20095;-77
2023/07/08 11:23:33;;;;;;;0.37;0.35;;;32.30;58.10;;;;;;4379471;32;20097;-77
2023/07/08 11:26:10;;;;;;;0.90;0.77;;;32.80;59.60;;;;;;4377091;32;20202;-78
2023/07/08 11:28:36;;;;;;;0.47;0.40;;;33.10;58.20;;;;;;4381337;32;20129;-77
2023/07/08 11:31:02;;;;;;;0.10;0.10;;;33.40;58.80;;;;;;4380575;32;20125;-76
2023/07/08 11:33:31;;;;;;;0.20;0.20;;;33.50;57.70;;;;;;4378221;32;20094;-76
2023/07/08 11:35:58;;;;;;;0.35;0.32;;;33.80;56.90;;;;;;4379344;32;20439;-76
2023/07/08 11:38:24;;;;;;;0.17;0.17;;;34.00;57.20;;;;;;4379394;32;20070;-78
2023/07/08 11:40:54;;;;;;;0.30;0.30;;;34.00;55.60;;;;;;4377327;32;20138;-78
2023/07/08 11:43:22;;;;;;;0.10;0.10;;;34.30;56.30;;;;;;4378834;32;20086;-77
2023/07/08 11:45:50;;;;;;;0.65;0.65;;;34.40;56.80;;;;;;4374112;32;90735;-77
2023/07/08 11:48:28;;;;;;;0.20;0.20;;;34.60;57.10;;;;;;4378521;32;20156;-77
2023/07/08 11:50:55;;;;;;;1.60;0.52;;;34.40;56.50;;;;;;4380406;32;20137;-78
2023/07/08 11:53:47;;;;;;;1.23;0.37;;;34.40;56.60;;;;;;4379469;32;20121;-78
2023/07/08 11:56:19;;;;;;;0.47;0.47;;;34.70;55.40;;;;;;4382527;32;20073;-77
2023/07/08 11:59:03;;;;;;;0.30;0.30;;;34.90;55.30;;;;;;4381040;32;20217;-78
2023/07/08 12:01:38;;;;;;;0.73;0.50;;;35.20;54.00;;;;;;4379902;32;20094;-78
2023/07/08 12:04:26;;;;;;;0.30;0.30;;;35.30;53.50;;;;;;4381739;32;20074;-77
2023/07/08 12:07:15;;;;;;;0.32;0.32;;;35.60;53.70;;;;;;4378638;32;20093;-77
2023/07/08 12:10:10;;;;;;;0.62;0.55;;;34.90;52.10;;;;;;4377509;32;20140;-79
2023/07/08 12:12:40;;;;;;;0.40;0.40;;;35.00;52.80;;;;;;4379990;32;20082;-76
2023/07/08 12:15:16;;;;;;;;;;;35.10;52.00;;;;;;4380339;32;20589;-78
2023/07/08 12:17:42;;;;;;;0.20;0.20;;;35.50;52.20;;;;;;4380331;32;20527;-78
2023/07/08 12:20:32;;;;;;;1.25;0.47;;;35.90;52.60;;;;;;4381857;32;20112;-78
2023/07/08 12:22:57;;;;;;;0.20;0.20;;;36.20;52.50;;;;;;4379182;32;20062;-77
2023/07/08 12:25:28;;;;;;;2.53;0.88;;;36.70;52.30;;;;;;4378801;32;20118;-77
2023/07/08 12:27:53;;;;;;;0.68;0.60;;;36.60;51.00;;;;;;4377905;32;20069;-78
2023/07/08 12:30:19;;;;;;;0.20;0.20;;;36.50;50.10;;;;;;4377856;32;20609;-77
2023/07/08 12:32:46;;;;;;;0.47;0.37;;;36.40;52.20;;;;;;4377735;32;21309;-78
2023/07/08 12:35:27;;;;;;;0.55;0.43;;;36.60;52.80;;;;;;4376930;32;20090;-78
2023/07/08 12:37:57;;;;;;;0.73;0.28;;;36.90;51.70;;;;;;4377170;32;20464;-78
2023/07/08 12:40:23;;;;;;;0.98;0.32;;;37.20;51.50;;;;;;4377854;32;20114;-78
2023/07/08 12:42:49;;;;;;;0.80;0.60;;;36.90;50.00;;;;;;4379974;32;20940;-78
2023/07/08 12:45:17;;;;;;;0.25;0.25;;;36.80;50.50;;;;;;4378248;32;20079;-78
2023/07/08 12:47:43;;;;;;;0.25;0.25;;;36.90;51.50;;;;;;4377760;32;20082;-79
2023/07/08 12:50:10;;;;;;;0.25;0.25;;;37.00;51.20;;;;;;4379419;32;20073;-77
2023/07/08 12:52:35;;;;;;;0.40;0.20;;;36.80;51.00;;;;;;4378063;32;20074;-77
2023/07/08 12:55:01;;;;;;;0.20;0.20;;;37.30;49.30;;;;;;4378121;32;20086;-76
2023/07/08 12:57:27;;;;;;;0.20;0.20;;;37.70;48.30;;;;;;4376292;32;20062;-77